createdAt,value
2022-09-30T00:00:07.315Z,63.77
2022-09-30T00:03:31.104Z,63.78
2022-09-30T00:06:35.388Z,63.78
2022-09-30T00:09:38.512Z,63.80
2022-09-30T00:12:40.855Z,63.84
2022-09-30T00:15:47.022Z,63.84
2022-09-30T00:18:50.724Z,63.82
2022-09-30T00:21:53.051Z,63.85
2022-09-30T00:24:55.435Z,63.89
2022-09-30T00:27:57.726Z,63.86
2022-09-30T00:31:01.351Z,63.84
2022-09-30T00:34:07.365Z,63.90
2022-09-30T00:37:11.919Z,63.90
2022-09-30T00:40:14.360Z,63.94
2022-09-30T00:43:21.127Z,63.95
2022-09-30T00:46:44.814Z,63.96
2022-09-30T00:49:47.219Z,64.01
2022-09-30T00:52:55.555Z,64.02
2022-09-30T00:56:05.131Z,64.08
2022-09-30T00:59:15.390Z,64.08
2022-09-30T01:02:17.790Z,64.11
2022-09-30T01:05:20.479Z,64.13
2022-09-30T01:08:23.849Z,64.20
2022-09-30T01:11:28.187Z,64.19
2022-09-30T01:14:30.468Z,64.20
2022-09-30T01:17:33.331Z,64.28
2022-09-30T01:21:01.116Z,64.24
2022-09-30T01:24:40.865Z,64.30
2022-09-30T01:28:24.521Z,64.32
2022-09-30T01:31:52.607Z,64.33
2022-09-30T01:35:00.510Z,64.35
2022-09-30T01:38:44.305Z,64.40
2022-09-30T01:42:18.656Z,64.41
2022-09-30T01:45:51.169Z,64.45
2022-09-30T01:49:17.065Z,64.46
2022-09-30T01:52:24.953Z,64.47
2022-09-30T01:55:37.753Z,64.44
2022-09-30T01:58:51.610Z,64.44
2022-09-30T02:01:57.230Z,64.48
2022-09-30T02:05:10.305Z,64.50
2022-09-30T02:08:21.851Z,64.50
2022-09-30T02:11:28.420Z,64.45
2022-09-30T02:14:36.822Z,64.50
2022-09-30T02:17:45.521Z,64.47
2022-09-30T02:20:55.985Z,64.52
2022-09-30T02:24:06.446Z,64.59
2022-09-30T02:27:16.274Z,64.67
2022-09-30T02:30:19.190Z,64.71
2022-09-30T02:33:29.815Z,64.78
2022-09-30T02:36:40.802Z,64.77
2022-09-30T02:39:58.282Z,64.72
2022-09-30T02:43:01.351Z,64.73
2022-09-30T02:46:34.931Z,64.73
2022-09-30T02:50:02.592Z,64.77
2022-09-30T02:53:19.201Z,64.76
2022-09-30T02:56:38.856Z,64.79
2022-09-30T02:59:41.249Z,64.85
2022-09-30T03:02:43.308Z,64.97
2022-09-30T03:05:45.469Z,64.93
2022-09-30T03:08:48.279Z,64.92
2022-09-30T03:11:52.363Z,64.91
2022-09-30T03:15:13.065Z,64.93
2022-09-30T03:18:53.780Z,64.99
2022-09-30T03:22:25.293Z,64.97
2022-09-30T03:25:49.515Z,64.96
2022-09-30T03:28:51.929Z,64.98
2022-09-30T03:32:25.094Z,64.92
2022-09-30T03:35:50.424Z,65.00
2022-09-30T03:39:10.237Z,64.89
2022-09-30T03:42:46.307Z,64.88
2022-09-30T03:46:07.021Z,64.99
2022-09-30T03:49:13.826Z,64.96
2022-09-30T03:52:17.649Z,64.91
2022-09-30T03:55:22.796Z,64.94
2022-09-30T03:58:25.527Z,64.83
2022-09-30T04:01:27.741Z,64.71
2022-09-30T04:04:30.532Z,64.75
2022-09-30T04:07:33.411Z,64.77
2022-09-30T04:10:35.682Z,64.82
2022-09-30T04:13:38.379Z,64.79
2022-09-30T04:16:40.790Z,64.90
2022-09-30T04:19:43.212Z,64.88
2022-09-30T04:22:45.274Z,64.89
2022-09-30T04:25:55.348Z,64.90
2022-09-30T04:28:59.247Z,65.05
2022-09-30T04:32:02.184Z,64.98
2022-09-30T04:35:04.503Z,64.98
2022-09-30T04:38:07.862Z,65.09
2022-09-30T04:41:18.117Z,65.10
2022-09-30T04:44:21.753Z,65.20
2022-09-30T04:47:25.735Z,65.27
2022-09-30T04:50:28.196Z,65.36
2022-09-30T04:53:31.765Z,65.45
2022-09-30T04:56:34.063Z,65.57
2022-09-30T04:59:36.907Z,65.49
2022-09-30T05:02:39.443Z,65.66
2022-09-30T05:05:44.451Z,65.69
2022-09-30T05:08:47.938Z,65.74
2022-09-30T05:11:52.245Z,65.63
2022-09-30T05:14:54.486Z,65.60
2022-09-30T05:17:56.433Z,65.70
2022-09-30T05:20:59.241Z,65.67
2022-09-30T05:24:02.227Z,65.63
2022-09-30T05:27:05.186Z,65.70
2022-09-30T05:30:08.106Z,65.65
2022-09-30T05:33:12.688Z,65.59
2022-09-30T05:36:16.880Z,65.82
2022-09-30T05:39:19.426Z,65.82
2022-09-30T05:42:21.746Z,65.69
2022-09-30T05:45:24.962Z,65.82
2022-09-30T05:48:28.167Z,65.95
2022-09-30T05:51:31.896Z,65.91
2022-09-30T05:54:34.243Z,66.22
2022-09-30T05:57:37.013Z,66.29
2022-09-30T06:00:42.284Z,66.13
2022-09-30T06:03:46.331Z,66.04
2022-09-30T06:06:48.825Z,65.70
2022-09-30T06:09:51.554Z,65.69
2022-09-30T06:12:53.768Z,65.90
2022-09-30T06:16:00.181Z,65.94
2022-09-30T06:19:02.286Z,65.49
2022-09-30T06:22:04.602Z,65.49
2022-09-30T06:25:07.841Z,65.55
2022-09-30T06:28:10.733Z,65.54
2022-09-30T06:31:12.908Z,65.52
2022-09-30T06:34:15.263Z,65.42
2022-09-30T06:37:18.689Z,65.44
2022-09-30T06:40:21.742Z,65.41
2022-09-30T06:43:24.131Z,65.30
2022-09-30T06:46:30.871Z,65.28
2022-09-30T06:49:45.940Z,65.23
2022-09-30T06:52:51.815Z,65.16
2022-09-30T06:55:58.213Z,65.45
2022-09-30T06:59:00.552Z,65.15
2022-09-30T07:02:04.202Z,64.93
2022-09-30T07:05:08.165Z,64.83
2022-09-30T07:08:10.977Z,64.84
2022-09-30T07:11:16.461Z,64.57
2022-09-30T07:14:18.511Z,64.42
2022-09-30T07:17:20.937Z,64.23
2022-09-30T07:20:25.384Z,64.13
2022-09-30T07:23:27.860Z,63.94
2022-09-30T07:26:31.412Z,63.76
2022-09-30T07:29:56.564Z,63.71
2022-09-30T07:32:56.280Z,63.49
2022-09-30T07:36:00.793Z,63.43
2022-09-30T07:39:07.382Z,63.45
2022-09-30T07:42:09.977Z,63.29
2022-09-30T07:45:17.396Z,63.26
2022-09-30T07:48:45.946Z,63.12
2022-09-30T07:51:48.923Z,63.05
2022-09-30T07:54:51.478Z,63.04
2022-09-30T07:57:53.598Z,62.88
2022-09-30T08:00:56.195Z,62.87
2022-09-30T08:04:01.917Z,62.81
2022-09-30T08:07:06.192Z,62.68
2022-09-30T08:10:09.166Z,62.56
2022-09-30T08:13:14.092Z,62.55
2022-09-30T08:16:16.316Z,62.81
2022-09-30T08:19:22.781Z,62.74
2022-09-30T08:22:25.863Z,62.67
2022-09-30T08:25:28.836Z,62.67
2022-09-30T08:28:32.431Z,62.45
2022-09-30T08:31:35.364Z,62.34
2022-09-30T08:34:37.616Z,62.25
2022-09-30T08:37:40.469Z,62.10
2022-09-30T08:40:58.377Z,61.90
2022-09-30T08:44:09.791Z,61.81
2022-09-30T08:47:49.432Z,61.80
2022-09-30T08:51:07.819Z,62.43
2022-09-30T08:54:18.664Z,62.37
2022-09-30T08:57:23.082Z,62.17
2022-09-30T09:00:26.642Z,62.01
2022-09-30T09:03:31.251Z,61.87
2022-09-30T09:07:15.038Z,61.77
2022-09-30T09:10:45.805Z,61.69
2022-09-30T09:14:01.043Z,61.66
2022-09-30T09:17:15.896Z,61.52
2022-09-30T09:20:22.704Z,61.44
2022-09-30T09:23:26.666Z,61.42
2022-09-30T09:26:35.758Z,61.39
2022-09-30T09:29:44.270Z,61.46
2022-09-30T09:32:52.322Z,61.46
2022-09-30T09:35:59.586Z,61.41
2022-09-30T09:39:23.009Z,61.44
2022-09-30T09:45:54.047Z,61.45
2022-09-30T09:49:23.912Z,61.47
2022-09-30T09:52:55.780Z,61.40
2022-09-30T09:56:00.272Z,61.41
2022-09-30T09:59:19.374Z,61.47
2022-09-30T10:02:31.940Z,61.41
2022-09-30T10:05:40.592Z,61.36
2022-09-30T10:08:55.668Z,61.41
2022-09-30T10:12:07.364Z,61.46
2022-09-30T10:15:26.604Z,61.43
2022-09-30T10:18:37.322Z,61.40
2022-09-30T10:21:41.399Z,61.43
2022-09-30T10:24:44.713Z,61.42
2022-09-30T10:27:58.231Z,61.42
2022-09-30T10:31:26.449Z,61.44
2022-09-30T10:34:44.062Z,61.47
2022-09-30T10:37:54.686Z,61.42
2022-09-30T10:41:01.106Z,61.41
2022-09-30T10:44:16.596Z,61.42
2022-09-30T10:47:25.599Z,61.45
2022-09-30T10:50:29.531Z,61.43
2022-09-30T10:53:36.540Z,61.42
2022-09-30T10:56:46.980Z,61.44
2022-09-30T10:59:58.733Z,61.40
2022-09-30T11:03:17.143Z,61.45
2022-09-30T11:06:22.808Z,61.50
2022-09-30T11:10:03.098Z,61.49
2022-09-30T11:13:34.307Z,61.43
2022-09-30T11:16:57.501Z,61.32
2022-09-30T11:20:13.765Z,61.32
2022-09-30T11:23:29.576Z,61.30
2022-09-30T11:26:32.849Z,61.28
2022-09-30T11:30:01.650Z,61.24
2022-09-30T11:33:40.172Z,61.17
2022-09-30T11:36:53.961Z,61.11
2022-09-30T11:40:25.110Z,61.16
2022-09-30T11:43:59.439Z,61.18
2022-09-30T11:47:29.871Z,61.08
2022-09-30T11:51:19.168Z,61.04
2022-09-30T11:54:41.890Z,61.02
2022-09-30T11:58:00.677Z,60.96
2022-09-30T12:01:17.831Z,60.94
2022-09-30T12:04:25.034Z,60.93
2022-09-30T12:07:47.912Z,60.88
2022-09-30T12:10:57.302Z,60.84
2022-09-30T12:14:06.763Z,60.79
2022-09-30T12:17:18.663Z,60.70
2022-09-30T12:20:48.615Z,60.71
2022-09-30T12:24:11.678Z,60.61
2022-09-30T12:27:31.228Z,60.97
2022-09-30T12:30:35.726Z,61.17
2022-09-30T12:33:53.628Z,60.95
2022-09-30T12:37:00.252Z,60.45
2022-09-30T12:40:23.170Z,60.20
2022-09-30T12:44:00.224Z,60.11
2022-09-30T12:47:15.028Z,60.06
2022-09-30T12:50:21.814Z,60.06
2022-09-30T12:53:30.235Z,60.02
2022-09-30T12:56:34.864Z,60.01
2022-09-30T12:59:47.697Z,59.95
2022-09-30T13:02:57.018Z,59.93
2022-09-30T13:06:06.854Z,59.89
2022-09-30T13:09:14.979Z,59.96
2022-09-30T13:12:29.088Z,59.91
2022-09-30T13:15:31.879Z,59.94
2022-09-30T13:18:37.121Z,59.95
2022-09-30T13:21:41.064Z,59.83
2022-09-30T13:25:15.591Z,59.89
2022-09-30T13:28:24.325Z,59.92
2022-09-30T13:31:34.215Z,59.90
2022-09-30T13:34:54.728Z,59.85
2022-09-30T13:38:20.323Z,59.86
2022-09-30T13:41:25.348Z,59.81
2022-09-30T13:44:36.473Z,59.91
2022-09-30T13:47:46.448Z,59.90
2022-09-30T13:50:51.316Z,60.01
2022-09-30T13:54:00.793Z,60.21
2022-09-30T13:57:15.094Z,60.27
2022-09-30T14:00:23.177Z,60.67
2022-09-30T14:03:30.784Z,60.51
2022-09-30T14:07:10.919Z,60.81
2022-09-30T14:10:29.265Z,60.65
2022-09-30T14:13:58.699Z,60.64
2022-09-30T14:17:17.056Z,60.44
2022-09-30T14:20:38.609Z,60.29
2022-09-30T14:23:42.946Z,60.24
2022-09-30T14:26:53.612Z,60.30
2022-09-30T14:30:02.843Z,60.28
2022-09-30T14:33:24.563Z,60.27
2022-09-30T14:36:27.563Z,60.24
2022-09-30T14:39:32.297Z,60.16
2022-09-30T14:42:39.090Z,60.14
2022-09-30T14:45:47.202Z,60.26
2022-09-30T14:48:50.789Z,60.30
2022-09-30T14:51:53.197Z,60.33
2022-09-30T14:54:58.482Z,60.38
2022-09-30T14:58:29.032Z,60.41
2022-09-30T15:01:36.223Z,60.44
2022-09-30T15:04:44.037Z,60.37
2022-09-30T15:07:47.084Z,60.35
2022-09-30T15:10:57.201Z,60.40
2022-09-30T15:14:10.041Z,60.28
2022-09-30T15:17:24.171Z,59.93
2022-09-30T15:20:36.967Z,59.72
2022-09-30T15:23:43.681Z,59.49
2022-09-30T15:26:49.500Z,59.40
2022-09-30T15:30:02.793Z,59.38
2022-09-30T15:33:08.340Z,59.21
2022-09-30T15:36:19.606Z,59.17
2022-09-30T15:39:51.960Z,59.17
2022-09-30T15:43:03.456Z,59.08
2022-09-30T15:46:32.622Z,59.16
2022-09-30T15:49:42.355Z,59.21
2022-09-30T15:52:52.268Z,59.27
2022-09-30T15:56:28.763Z,59.33
2022-09-30T16:00:33.999Z,59.40
2022-09-30T16:03:37.230Z,59.48
2022-09-30T16:06:48.261Z,59.48
2022-09-30T16:09:52.378Z,59.48
2022-09-30T16:12:55.954Z,59.49
2022-09-30T16:16:02.846Z,59.57
2022-09-30T16:19:07.598Z,59.58
2022-09-30T16:22:32.792Z,59.62
2022-09-30T16:25:35.527Z,59.73
2022-09-30T16:28:37.895Z,59.78
2022-09-30T16:31:40.611Z,59.88
2022-09-30T16:34:43.698Z,59.95
2022-09-30T16:37:46.441Z,59.98
2022-09-30T16:40:49.489Z,60.00
2022-09-30T16:43:52.127Z,60.07
2022-09-30T16:46:54.119Z,60.16
2022-09-30T16:50:00.143Z,60.22
2022-09-30T16:53:02.661Z,60.40
2022-09-30T16:56:05.644Z,60.49
2022-09-30T16:59:14.045Z,60.62
2022-09-30T17:02:17.237Z,60.67
2022-09-30T17:05:21.984Z,60.77
2022-09-30T17:08:26.041Z,60.78
2022-09-30T17:11:35.959Z,60.82
2022-09-30T17:14:39.802Z,60.95
2022-09-30T17:17:42.153Z,60.98
2022-09-30T17:20:52.503Z,61.03
2022-09-30T17:23:55.955Z,61.01
2022-09-30T17:26:59.765Z,61.11
2022-09-30T17:30:04.258Z,61.10
2022-09-30T17:33:11.817Z,60.80
2022-09-30T17:36:15.233Z,61.21
2022-09-30T17:39:17.690Z,61.21
2022-09-30T17:42:41.249Z,61.17
2022-09-30T17:45:46.515Z,61.17
2022-09-30T17:48:51.045Z,61.09
2022-09-30T17:51:53.861Z,61.24
2022-09-30T17:54:57.983Z,61.22
2022-09-30T17:58:03.488Z,61.23
2022-09-30T18:01:08.395Z,61.25
2022-09-30T18:04:11.661Z,61.34
2022-09-30T18:07:14.240Z,61.41
2022-09-30T18:10:16.930Z,61.41
2022-09-30T18:13:20.598Z,61.47
2022-09-30T18:16:24.706Z,61.43
2022-09-30T18:19:26.806Z,61.49
2022-09-30T18:22:30.770Z,61.43
2022-09-30T18:25:33.183Z,61.41
2022-09-30T18:28:38.027Z,61.38
2022-09-30T18:31:41.571Z,61.30
2022-09-30T18:34:44.072Z,61.32
2022-09-30T18:37:49.805Z,61.23
2022-09-30T18:40:54.157Z,61.28
2022-09-30T18:43:59.924Z,61.38
2022-09-30T18:47:04.710Z,61.38
2022-09-30T18:50:07.074Z,61.37
2022-09-30T18:53:13.039Z,61.48
2022-09-30T18:56:15.436Z,61.46
2022-09-30T18:59:20.722Z,61.41
2022-09-30T19:02:28.722Z,61.39
2022-09-30T19:05:31.296Z,61.36
2022-09-30T19:08:37.001Z,61.38
2022-09-30T19:11:43.042Z,61.39
2022-09-30T19:14:45.311Z,61.37
2022-09-30T19:17:50.523Z,61.41
2022-09-30T19:20:52.939Z,61.41
2022-09-30T19:23:58.799Z,61.35
2022-09-30T19:27:00.962Z,61.38
2022-09-30T19:30:09.337Z,61.51
2022-09-30T19:33:12.613Z,61.70
2022-09-30T19:36:17.700Z,61.23
2022-09-30T19:39:22.428Z,61.19
2022-09-30T19:42:29.075Z,61.66
2022-09-30T19:45:34.025Z,61.27
2022-09-30T19:48:43.550Z,61.41
2022-09-30T19:51:51.223Z,61.41
2022-09-30T19:55:07.609Z,61.30
2022-09-30T19:58:15.652Z,61.31
2022-09-30T20:01:23.062Z,61.23
2022-09-30T20:04:28.201Z,61.23
2022-09-30T20:07:32.441Z,61.18
2022-09-30T20:10:35.234Z,61.22
2022-09-30T20:13:40.393Z,61.24
2022-09-30T20:16:44.568Z,61.24
2022-09-30T20:20:08.470Z,61.28
2022-09-30T20:23:16.344Z,61.27
2022-09-30T20:26:21.397Z,61.25
2022-09-30T20:29:24.504Z,61.25
2022-09-30T20:32:31.642Z,61.28
2022-09-30T20:35:38.837Z,61.28
2022-09-30T20:38:44.307Z,61.24
2022-09-30T20:41:51.341Z,61.19
2022-09-30T20:45:01.610Z,61.26
2022-09-30T20:48:05.662Z,61.50
2022-09-30T20:51:09.618Z,61.36
2022-09-30T20:54:13.651Z,61.38
2022-09-30T20:57:18.975Z,61.42
2022-09-30T21:00:28.833Z,61.42
2022-09-30T21:03:40.553Z,61.43
2022-09-30T21:06:43.595Z,61.28
2022-09-30T21:09:53.395Z,61.53
2022-09-30T21:12:59.719Z,61.55
2022-09-30T21:16:07.533Z,61.65
2022-09-30T21:19:10.835Z,61.64
2022-09-30T21:22:14.586Z,61.66
2022-09-30T21:25:18.058Z,61.70
2022-09-30T21:28:22.705Z,61.72
2022-09-30T21:31:29.081Z,61.70
2022-09-30T21:34:36.091Z,61.72
2022-09-30T21:37:44.637Z,61.77
2022-09-30T21:40:48.123Z,61.75
2022-09-30T21:43:52.819Z,61.74
2022-09-30T21:46:58.375Z,61.79
2022-09-30T21:50:00.723Z,61.78
2022-09-30T21:53:03.998Z,61.80
2022-09-30T21:56:09.130Z,61.81
2022-09-30T21:59:15.512Z,61.89
2022-09-30T22:02:19.568Z,61.89
2022-09-30T22:05:22.841Z,61.91
2022-09-30T22:08:26.579Z,61.92
2022-09-30T22:11:31.917Z,61.95
2022-09-30T22:14:38.593Z,61.95
2022-09-30T22:17:42.581Z,62.00
2022-09-30T22:20:46.834Z,62.05
2022-09-30T22:23:49.993Z,62.09
2022-09-30T22:26:53.962Z,62.09
2022-09-30T22:29:57.112Z,62.11
2022-09-30T22:33:18.111Z,62.14
2022-09-30T22:36:39.519Z,62.20
2022-09-30T22:39:42.850Z,62.21
2022-09-30T22:42:48.102Z,62.26
2022-09-30T22:46:02.098Z,62.27
2022-09-30T22:49:05.456Z,62.25
2022-09-30T22:52:08.711Z,62.27
2022-09-30T22:55:11.515Z,62.30
2022-09-30T22:58:14.700Z,62.39
2022-09-30T23:01:17.950Z,62.30
2022-09-30T23:04:21.437Z,62.41
2022-09-30T23:07:24.304Z,62.36
2022-09-30T23:10:26.661Z,62.33
2022-09-30T23:13:31.068Z,62.44
2022-09-30T23:16:33.052Z,62.50
2022-09-30T23:19:35.497Z,62.57
2022-09-30T23:22:37.740Z,62.53
2022-09-30T23:25:41.981Z,62.56
2022-09-30T23:28:45.086Z,62.61
2022-09-30T23:31:48.338Z,62.65
2022-09-30T23:34:51.645Z,62.77
2022-09-30T23:37:53.725Z,62.75
2022-09-30T23:40:59.492Z,62.68
2022-09-30T23:44:02.936Z,62.74
2022-09-30T23:47:17.861Z,62.78
2022-09-30T23:50:20.133Z,62.76
2022-09-30T23:53:23.170Z,62.74
2022-09-30T23:56:25.736Z,62.80
2022-09-30T23:59:28.723Z,62.81
